Terminal Aerodrome Forecast
Issued by NWS

Home | Current Version | Previous Version | Text Only | Print | Product List | Glossary On
Versions: 1 2 3 4 5 6 7 8 9 10 11 12 13 14 15 16 17 18 19
859
FTUS42 KKEY 030539
TAFMTH
TAF
KMTH 030539Z 0306/0406 13008G15KT P6SM FEW020 BKN080
     FM031200 18010KT P6SM FEW020 SCT200
     FM031800 23008KT P6SM SCT025 SCT050=

USA.gov is the U.S. government's official web portal to all federal, state and local government web resources and services.